Domov               UVHVVR             MKGP            O straneh              
ZDRAVSTVENO VARSTVO RASTLIN
  MREŽA AGROMET. POSTAJ
 ► PROGNOSTIČNA OBVESTILA
AGROMETEOROLOŠKI PODATKI -
ARSO
OBVLADOVANJE TVEGANJ ZARADI
NEUGODNIH VREMENSKIH RAZMER
  ► NARAVNE NESREČE
  ► SUŠA/MOČA
  ► NAMAKANJE
  ► ŽLED (gozdarstvo)
KARTOGRAFSKI PRIKAZI
SPLETNE POVEZAVE
PROJEKTI IN PUBLIKACIJE

AGROMETEOROLOŠKA MREŽA: VREMENSKE POSTAJE IN FENOLOŠKA OPAZOVANJA

Pregled podatkov za lokacijo Brdo, meteorološka postaja 61681

Pregled senzorjev na lokaciji

ID Ime Zadnja
vrednost
Datum
zadnje
spremembe
Tip
senzorja
4248 Sončno sevanje (W/m2) 9,37 W/m2 19.2.2018 07:00 Generic 0 - 2000 W/m²
4251 Padavine (mm) 0 mm 19.2.2018 07:00 Generic 0.2 mm
4246 Relativna vlaga 2 m (% RH) 80,9 % RH 19.2.2018 07:00 Generic 0 - 100 %
4247 Temperatura tal 5 cm (°C) 40 °C 19.2.2018 07:00 Generic -20 - +40 °C
4245 Temperatura 2 m (°C) 0,11 °C 19.2.2018 07:00 Generic -40 - +60 °C
4250 Smer vetra (°) 299,08 ° 19.2.2018 07:00 Generic 0 - 360
4249 Hitrost vetra (km/h) 4,44 km/h 19.2.2018 07:00 Generic 200 km/h

Pregled podatkov zadnjih 24 ur

Zap.
št.
Datum in čas Brdo
Sončno
sevanje
Padavine Relativna
vlaga
2
m
Temperatura
tal
5
cm
Temperatura
2
m
Smer
vetra
Hitrost
vetra
1 19.2.2018 07:00 9,4 0 80,9 40 0,1 299,1 4,4
2 19.2.2018 06:30 8,9 0 81,2 40 0,2 11 2,8
3 19.2.2018 06:00 8,9 0 80,9 40 0,3 90,7 4,1
4 19.2.2018 05:30 8,9 0 81,9 40 0,3 289,6 5,5
5 19.2.2018 05:00 8,9 0 82,8 40 0,4 5,7 5,3
6 19.2.2018 04:30 8,9 0 84 40 0,4 36,1 4,2
7 19.2.2018 04:00 8,9 0 85,4 40 0,5 16,7 6,7
8 19.2.2018 03:30 9 0 85,5 40 0,7 311,5 3,7
9 19.2.2018 03:00 9 0 85,2 40 0,9 305,2 4,3
10 19.2.2018 02:30 9 0 85 40 1,1 14,3 4,7
11 19.2.2018 02:00 9 0 84,4 40 1,2 19,4 5,7
12 19.2.2018 01:30 9,1 0 84,8 40 1,2 67,3 3,9
13 19.2.2018 01:00 9,1 0 84,7 40 1,2 94,7 3,4
14 19.2.2018 00:30 9,1 0 84,2 40 1,2 307,9 1,8
15 19.2.2018 00:00 9,2 0 83,6 40 1,3 199,6 2,7
16 18.2.2018 23:30 9,2 0 83,2 40 1,4 78,6 2,6
17 18.2.2018 23:00 9,2 0 82,7 40 1,6 7,7 4,1
18 18.2.2018 22:30 9,2 0 82,6 40 1,7 250,9 2,6
19 18.2.2018 22:00 9,3 0 83,9 40 1,8 335,1 2,1
20 18.2.2018 21:30 9,3 0 83,8 40 1,9 30 3,4
21 18.2.2018 21:00 9,3 0 85 40 2 24,9 3,4
22 18.2.2018 20:30 9,4 0 88 40 1,9 221,7 1,9
23 18.2.2018 20:00 9,4 0 87,7 40 2,1 348,7 1,5
24 18.2.2018 19:30 9,5 0 89,3 40 2,2 233,9 1,9
25 18.2.2018 19:00 9,6 0 91,6 40 2,2 172,9 2,6
26 18.2.2018 18:30 9,6 0 94 40 2,1 358,6 1,5
27 18.2.2018 18:00 10,1 0 93,2 40 2,3 256,4 1,3
28 18.2.2018 17:30 15,7 0 93,2 40 2,4 84,7 0
29 18.2.2018 17:00 34,9 0 92,4 40 2,7 180,8 0,6
30 18.2.2018 16:30 50,9 0 90 40 2,9 91,1 1
31 18.2.2018 16:00 66,5 0 87,9 40 3,3 308,7 1,8
32 18.2.2018 15:30 96,1 0 86,7 40 3,4 341,1 2,8
33 18.2.2018 15:00 98,7 0 85,4 40 3,5 116,8 2,1
34 18.2.2018 14:30 103,2 0 82,8 40 3,8 181,6 2,6
35 18.2.2018 14:00 115,3 0 82 40 4,1 200,3 1,6
36 18.2.2018 13:30 148,2 0 81,6 40 4,5 184,8 2,3
37 18.2.2018 13:00 205,6 0 81,7 40 4,9 87,2 2,3
38 18.2.2018 12:30 259,1 0 83,3 40 4,9 139,7 3,1
39 18.2.2018 12:00 274,1 0 85,6 40 4,6 166,5 4,4
40 18.2.2018 11:30 229,1 0 86,5 40 4,2 145,2 2,2
41 18.2.2018 11:00 234,7 0 87,4 40 4,2 292 3
42 18.2.2018 10:30 179,1 0 90,1 40 3,7 172,5 2,5
43 18.2.2018 10:00 111,9 0 92,2 40 3 0,7 3,6
44 18.2.2018 09:30 98,2 0,2 96,3 40 2,6 284,2 2,5
45 18.2.2018 09:00 71,5 1,2 100 40 2,2 86,8 1,4
46 18.2.2018 08:30 43,7 0,8 100 40 1,9 270,3 0,5
47 18.2.2018 08:00 24 0,4 100 40 1,7 190,5 0,4
48 18.2.2018 07:30 12,7 0,4 100 40 1,6 249,5 0,8
© 2011 Ministrstvo za kmetijstvo, gozdarstvo in prehrano. Vse pravice pridržane.